createdAt,value
2019-06-01T00:00:11.245Z,13.39
2019-06-01T00:00:36.210Z,13.39
2019-06-01T00:01:06.260Z,13.39
2019-06-01T00:01:36.211Z,13.38
2019-06-01T00:02:06.157Z,13.36
2019-06-01T00:02:36.200Z,13.35
2019-06-01T00:03:06.164Z,13.34
2019-06-01T00:03:36.232Z,13.35
2019-06-01T00:04:06.147Z,13.34
2019-06-01T00:04:36.213Z,13.34
2019-06-01T00:05:06.151Z,13.34
2019-06-01T00:05:36.201Z,13.35
2019-06-01T00:06:06.268Z,13.35
2019-06-01T00:06:38.606Z,13.32
2019-06-01T00:07:06.149Z,13.34
2019-06-01T00:07:36.212Z,13.35
2019-06-01T00:08:06.228Z,13.32
2019-06-01T00:08:37.174Z,13.32
2019-06-01T00:09:06.150Z,13.35
2019-06-01T00:09:36.259Z,13.32
2019-06-01T00:10:06.194Z,13.35
2019-06-01T00:10:36.208Z,13.35
2019-06-01T00:11:06.151Z,13.35
2019-06-01T00:11:36.205Z,13.32
2019-06-01T00:12:06.211Z,13.34
2019-06-01T00:12:36.266Z,13.32
2019-06-01T00:13:06.154Z,13.31
2019-06-01T00:13:36.255Z,13.34
2019-06-01T00:14:06.164Z,13.35
2019-06-01T00:14:36.217Z,13.34
2019-06-01T00:15:06.160Z,13.35
2019-06-01T00:15:36.218Z,13.38
2019-06-01T00:16:06.156Z,13.38
2019-06-01T00:16:36.217Z,13.39
2019-06-01T00:17:08.185Z,13.39
2019-06-01T00:17:36.260Z,13.39
2019-06-01T00:18:06.157Z,13.39
2019-06-01T00:18:36.305Z,13.39
2019-06-01T00:19:07.326Z,13.39
2019-06-01T00:19:36.212Z,13.38
2019-06-01T00:20:06.150Z,13.39
2019-06-01T00:20:36.275Z,13.36
2019-06-01T00:21:06.180Z,13.39
2019-06-01T00:21:36.205Z,13.36
2019-06-01T00:22:06.271Z,13.35
2019-06-01T00:22:36.222Z,13.35
2019-06-01T00:23:06.153Z,13.35
2019-06-01T00:23:36.209Z,13.34
2019-06-01T00:24:06.161Z,13.35
2019-06-01T00:24:36.210Z,13.35
2019-06-01T00:25:06.158Z,13.35
2019-06-01T00:25:36.211Z,13.36
2019-06-01T00:26:06.158Z,13.35
2019-06-01T00:26:36.218Z,13.35
2019-06-01T00:27:06.158Z,13.35
2019-06-01T00:27:38.246Z,13.32
2019-06-01T00:28:06.149Z,13.32
2019-06-01T00:28:36.218Z,13.29
2019-06-01T00:29:06.154Z,13.31
2019-06-01T00:29:37.343Z,13.29
2019-06-01T00:30:06.147Z,13.32
2019-06-01T00:30:36.204Z,13.31
2019-06-01T00:31:06.186Z,13.29
2019-06-01T00:31:36.216Z,13.28
2019-06-01T00:32:06.160Z,13.25
2019-06-01T00:32:36.212Z,13.26
2019-06-01T00:33:06.162Z,13.24
2019-06-01T00:33:36.229Z,13.21
2019-06-01T00:34:06.168Z,13.21
2019-06-01T00:34:36.212Z,13.22
2019-06-01T00:35:06.259Z,13.19
2019-06-01T00:35:36.222Z,13.18
2019-06-01T00:36:06.156Z,13.22
2019-06-01T00:36:36.242Z,13.19
2019-06-01T00:37:06.164Z,13.19
2019-06-01T00:37:36.218Z,13.17
2019-06-01T00:38:08.223Z,13.19
2019-06-01T00:38:36.220Z,13.19
2019-06-01T00:39:06.182Z,13.18
2019-06-01T00:39:36.211Z,13.14
2019-06-01T00:40:07.212Z,13.17
2019-06-01T00:40:36.221Z,13.15
2019-06-01T00:41:06.153Z,13.15
2019-06-01T00:41:36.229Z,13.17
2019-06-01T00:42:06.164Z,13.14
2019-06-01T00:42:36.220Z,13.11
2019-06-01T00:43:06.262Z,13.11
2019-06-01T00:43:36.234Z,13.09
2019-06-01T00:44:06.167Z,13.08
2019-06-01T00:44:36.220Z,13.09
2019-06-01T00:45:06.164Z,13.05
2019-06-01T00:45:36.221Z,13.05
2019-06-01T00:46:06.157Z,13.04
2019-06-01T00:46:36.216Z,13.05
2019-06-01T00:47:06.164Z,13.01
2019-06-01T00:47:36.235Z,12.99
2019-06-01T00:48:06.170Z,12.97
2019-06-01T00:48:38.198Z,12.99
2019-06-01T00:49:06.158Z,12.95
2019-06-01T00:49:36.217Z,12.95
2019-06-01T00:50:06.163Z,12.95
2019-06-01T00:50:37.725Z,12.92
2019-06-01T00:51:06.166Z,12.92
2019-06-01T00:51:36.242Z,12.91
2019-06-01T00:52:06.165Z,12.91
2019-06-01T00:52:36.224Z,12.91
2019-06-01T00:53:06.173Z,12.90
2019-06-01T00:53:36.227Z,12.88
2019-06-01T00:54:06.161Z,12.87
2019-06-01T00:54:36.226Z,12.87
2019-06-01T00:55:06.163Z,12.87
2019-06-01T00:55:36.218Z,12.86
2019-06-01T00:56:06.333Z,12.84
2019-06-01T00:56:36.227Z,12.86
2019-06-01T00:57:06.161Z,12.81
2019-06-01T00:57:36.212Z,12.83
2019-06-01T00:58:06.191Z,12.83
2019-06-01T00:58:36.218Z,12.83
2019-06-01T00:59:08.103Z,12.83
2019-06-01T00:59:36.225Z,12.80
2019-06-01T01:00:06.165Z,12.80
2019-06-01T01:00:43.425Z,12.79
2019-06-01T01:01:07.198Z,12.77
2019-06-01T01:01:36.216Z,12.76
2019-06-01T01:02:06.186Z,12.77
2019-06-01T01:02:36.225Z,12.73
2019-06-01T01:03:06.166Z,12.76
2019-06-01T01:03:36.225Z,12.73
2019-06-01T01:04:06.193Z,12.74
2019-06-01T01:04:36.224Z,12.73
2019-06-01T01:05:06.166Z,12.74
2019-06-01T01:05:36.224Z,12.73
2019-06-01T01:06:06.169Z,12.76
2019-06-01T01:06:36.258Z,12.73
2019-06-01T01:07:06.177Z,12.71
2019-06-01T01:07:38.181Z,12.73
2019-06-01T01:08:06.165Z,12.71
2019-06-01T01:08:36.246Z,12.71
2019-06-01T01:09:06.167Z,12.70
2019-06-01T01:09:38.157Z,12.69
2019-06-01T01:10:06.175Z,12.70
2019-06-01T01:10:36.237Z,12.67
2019-06-01T01:11:06.167Z,12.70
2019-06-01T01:11:37.216Z,12.69
2019-06-01T01:12:06.165Z,12.67
2019-06-01T01:12:36.305Z,12.64
2019-06-01T01:13:06.177Z,12.63
2019-06-01T01:13:36.229Z,12.64
2019-06-01T01:14:06.168Z,12.62
2019-06-01T01:14:36.249Z,12.63
2019-06-01T01:15:06.172Z,12.62
2019-06-01T01:15:36.220Z,12.60
2019-06-01T01:16:06.182Z,12.60
2019-06-01T01:16:36.237Z,12.62
2019-06-01T01:17:06.174Z,12.57
2019-06-01T01:17:36.222Z,12.56
2019-06-01T01:18:06.183Z,12.56
2019-06-01T01:18:36.224Z,12.55
2019-06-01T01:19:06.173Z,12.57
2019-06-01T01:19:36.230Z,12.52
2019-06-01T01:20:08.185Z,12.53
2019-06-01T01:20:36.235Z,12.50
2019-06-01T01:21:06.184Z,12.50
2019-06-01T01:21:36.227Z,12.50
2019-06-01T01:22:07.151Z,12.50
2019-06-01T01:22:36.234Z,12.49
2019-06-01T01:23:06.202Z,12.49
2019-06-01T01:23:36.226Z,12.50
2019-06-01T01:24:06.169Z,12.50
2019-06-01T01:24:36.244Z,12.50
2019-06-01T01:25:06.324Z,12.50
2019-06-01T01:25:36.233Z,12.49
2019-06-01T01:26:06.190Z,12.49
2019-06-01T01:26:36.234Z,12.49
2019-06-01T01:27:06.171Z,12.46
2019-06-01T01:27:36.231Z,12.46
2019-06-01T01:28:06.189Z,12.46
2019-06-01T01:28:36.229Z,12.49
2019-06-01T01:29:06.210Z,12.48
2019-06-01T01:29:36.238Z,12.49
2019-06-01T01:30:06.173Z,12.49
2019-06-01T01:30:38.093Z,12.49
2019-06-01T01:31:13.073Z,12.46
2019-06-01T01:31:36.231Z,12.49
2019-06-01T01:32:06.175Z,12.48
2019-06-01T01:32:37.239Z,12.46
2019-06-01T01:33:06.180Z,12.49
2019-06-01T01:33:36.397Z,12.45
2019-06-01T01:34:06.179Z,12.45
2019-06-01T01:34:36.231Z,12.46
2019-06-01T01:35:06.171Z,12.46
2019-06-01T01:35:36.332Z,12.43
2019-06-01T01:36:06.180Z,12.46
2019-06-01T01:36:36.230Z,12.45
2019-06-01T01:37:06.182Z,12.45
2019-06-01T01:37:36.315Z,12.45
2019-06-01T01:38:06.191Z,12.46
2019-06-01T01:38:36.238Z,12.43
2019-06-01T01:39:06.171Z,12.46
2019-06-01T01:39:36.253Z,12.45
2019-06-01T01:40:06.185Z,12.45
2019-06-01T01:40:36.238Z,12.45
2019-06-01T01:41:08.096Z,12.45
2019-06-01T01:41:36.247Z,12.43
2019-06-01T01:42:06.169Z,12.45
2019-06-01T01:42:36.241Z,12.43
2019-06-01T01:43:07.300Z,12.45
2019-06-01T01:43:36.228Z,12.45
2019-06-01T01:44:06.176Z,12.43
2019-06-01T01:44:36.236Z,12.40
2019-06-01T01:45:06.182Z,12.43
2019-06-01T01:45:36.271Z,12.42
2019-06-01T01:46:06.175Z,12.40
2019-06-01T01:46:36.234Z,12.42
2019-06-01T01:47:06.175Z,12.39
2019-06-01T01:47:36.235Z,12.36
2019-06-01T01:48:06.186Z,12.37
2019-06-01T01:48:36.237Z,12.36
2019-06-01T01:49:06.177Z,12.35
2019-06-01T01:49:36.231Z,12.35
2019-06-01T01:50:06.275Z,12.33
2019-06-01T01:50:36.246Z,12.33
2019-06-01T01:51:06.191Z,12.35
2019-06-01T01:51:38.130Z,12.32
2019-06-01T01:52:06.254Z,12.32
2019-06-01T01:52:36.229Z,12.31
2019-06-01T01:53:06.185Z,12.33
2019-06-01T01:53:37.435Z,12.33
2019-06-01T01:54:06.179Z,12.33
2019-06-01T01:54:36.233Z,12.35
2019-06-01T01:55:06.177Z,12.36
2019-06-01T01:55:36.239Z,12.35
2019-06-01T01:56:06.181Z,12.36
2019-06-01T01:56:36.241Z,12.35
2019-06-01T01:57:07.161Z,12.35
2019-06-01T01:57:36.231Z,12.35
2019-06-01T01:58:06.205Z,12.35
2019-06-01T01:58:36.360Z,12.35
2019-06-01T01:59:06.236Z,12.33
2019-06-01T01:59:36.238Z,12.35
2019-06-01T02:00:06.192Z,12.36
2019-06-01T02:00:36.384Z,12.36
2019-06-01T02:01:21.164Z,12.35
2019-06-01T02:01:36.243Z,12.33
2019-06-01T02:02:08.239Z,12.32
2019-06-01T02:02:36.270Z,12.32
2019-06-01T02:03:06.183Z,12.35
2019-06-01T02:03:36.236Z,12.36
2019-06-01T02:04:07.239Z,12.35
2019-06-01T02:04:36.310Z,12.36
2019-06-01T02:05:06.181Z,12.35
2019-06-01T02:05:36.239Z,12.35
2019-06-01T02:06:06.181Z,12.35
2019-06-01T02:06:36.240Z,12.35
2019-06-01T02:07:06.178Z,12.33
2019-06-01T02:07:36.237Z,12.35
2019-06-01T02:08:06.180Z,12.35
2019-06-01T02:08:36.250Z,12.33
2019-06-01T02:09:06.183Z,12.32
2019-06-01T02:09:36.248Z,12.33
2019-06-01T02:10:06.176Z,12.32
2019-06-01T02:10:36.233Z,12.33
2019-06-01T02:11:06.181Z,12.31
2019-06-01T02:11:36.240Z,12.33
2019-06-01T02:12:06.176Z,12.32
2019-06-01T02:12:38.227Z,12.29
2019-06-01T02:13:06.189Z,12.31
2019-06-01T02:13:36.245Z,12.29
2019-06-01T02:14:06.197Z,12.31
2019-06-01T02:14:37.177Z,12.29
2019-06-01T02:15:06.179Z,12.31
2019-06-01T02:15:36.244Z,12.31
2019-06-01T02:16:06.175Z,12.31
2019-06-01T02:16:36.244Z,12.31
2019-06-01T02:17:06.278Z,12.29
2019-06-01T02:17:36.246Z,12.32
2019-06-01T02:18:06.184Z,12.31
2019-06-01T02:18:36.248Z,12.31
2019-06-01T02:19:06.216Z,12.31
2019-06-01T02:19:36.627Z,12.28
2019-06-01T02:20:06.194Z,12.26
2019-06-01T02:20:36.243Z,12.29
2019-06-01T02:21:06.241Z,12.28
2019-06-01T02:21:36.243Z,12.31
2019-06-01T02:22:06.185Z,12.29
2019-06-01T02:22:36.241Z,12.29
2019-06-01T02:23:08.190Z,12.25
2019-06-01T02:23:36.261Z,12.29
2019-06-01T02:24:06.190Z,12.26
2019-06-01T02:24:36.247Z,12.23
2019-06-01T02:25:07.257Z,12.25
2019-06-01T02:25:36.257Z,12.22
2019-06-01T02:26:06.196Z,12.21
2019-06-01T02:26:36.252Z,12.19
2019-06-01T02:27:06.184Z,12.18
2019-06-01T02:27:36.350Z,12.21
2019-06-01T02:28:06.180Z,12.21
2019-06-01T02:28:36.243Z,12.18
2019-06-01T02:29:06.191Z,12.15
2019-06-01T02:29:36.320Z,12.15
2019-06-01T02:30:06.211Z,12.14
2019-06-01T02:30:36.253Z,12.15
2019-06-01T02:31:06.194Z,12.14
2019-06-01T02:31:41.326Z,12.12
2019-06-01T02:32:06.664Z,12.14
2019-06-01T02:32:36.250Z,12.09
2019-06-01T02:33:06.193Z,12.12
2019-06-01T02:33:38.297Z,12.09
2019-06-01T02:34:06.335Z,12.08
2019-06-01T02:34:36.267Z,12.08
2019-06-01T02:35:06.182Z,12.08
2019-06-01T02:35:37.370Z,12.08
2019-06-01T02:36:06.191Z,12.06
2019-06-01T02:36:36.249Z,12.08
2019-06-01T02:37:06.182Z,12.04
2019-06-01T02:37:36.247Z,12.04
2019-06-01T02:38:06.192Z,12.04
2019-06-01T02:38:36.245Z,12.02
2019-06-01T02:39:06.188Z,12.00
2019-06-01T02:39:36.352Z,12.00
2019-06-01T02:40:06.188Z,11.97
2019-06-01T02:40:36.245Z,11.97
2019-06-01T02:41:06.199Z,11.95
2019-06-01T02:41:36.254Z,11.97
2019-06-01T02:42:06.290Z,11.95
2019-06-01T02:42:36.255Z,11.95
2019-06-01T02:43:06.928Z,11.94
2019-06-01T02:43:36.244Z,11.95
2019-06-01T02:44:08.076Z,11.94
2019-06-01T02:44:36.262Z,11.93
2019-06-01T02:45:06.237Z,11.91
2019-06-01T02:45:36.301Z,11.91
2019-06-01T02:46:07.563Z,11.87
2019-06-01T02:46:36.370Z,11.90
2019-06-01T02:47:06.469Z,11.88
2019-06-01T02:47:36.252Z,11.88
2019-06-01T02:48:06.610Z,11.88
2019-06-01T02:48:36.271Z,11.88
2019-06-01T02:49:06.465Z,11.91
2019-06-01T02:49:36.259Z,11.90
2019-06-01T02:50:06.440Z,11.90
2019-06-01T02:50:36.487Z,11.88
2019-06-01T02:51:06.192Z,11.90
2019-06-01T02:51:36.246Z,11.88
2019-06-01T02:52:06.217Z,11.88
2019-06-01T02:52:36.250Z,11.90
2019-06-01T02:53:06.187Z,11.91
2019-06-01T02:53:36.248Z,11.91
2019-06-01T02:54:06.318Z,11.87
2019-06-01T02:54:38.126Z,11.88
2019-06-01T02:55:06.507Z,11.91
2019-06-01T02:55:36.245Z,11.93
2019-06-01T02:56:06.289Z,11.91
2019-06-01T02:56:37.227Z,11.94
2019-06-01T02:57:06.265Z,11.94
2019-06-01T02:57:36.262Z,11.94
2019-06-01T02:58:06.590Z,11.94
2019-06-01T02:58:36.270Z,11.93
2019-06-01T02:59:06.682Z,11.94
2019-06-01T02:59:36.254Z,11.95
2019-06-01T03:00:06.658Z,11.94
2019-06-01T03:00:36.383Z,11.94
2019-06-01T03:01:06.973Z,11.94
2019-06-01T03:01:36.270Z,11.91
2019-06-01T03:02:10.567Z,11.93
2019-06-01T03:02:36.261Z,11.91
2019-06-01T03:03:06.933Z,11.93
2019-06-01T03:03:36.250Z,11.91
2019-06-01T03:04:07.764Z,11.94
2019-06-01T03:04:36.254Z,11.90
2019-06-01T03:05:08.105Z,11.90
2019-06-01T03:05:36.260Z,11.88
2019-06-01T03:06:06.452Z,11.87
2019-06-01T03:06:36.267Z,11.87
2019-06-01T03:07:08.678Z,11.87
2019-06-01T03:07:36.260Z,11.84
2019-06-01T03:08:06.206Z,11.85
2019-06-01T03:08:36.278Z,11.85
2019-06-01T03:09:06.673Z,11.83
2019-06-01T03:09:36.275Z,11.83
2019-06-01T03:10:06.990Z,11.80
2019-06-01T03:10:36.252Z,11.80
2019-06-01T03:11:06.281Z,11.80
2019-06-01T03:11:36.258Z,11.78
2019-06-01T03:12:06.340Z,11.80
2019-06-01T03:12:36.265Z,11.77
2019-06-01T03:13:06.248Z,11.77
2019-06-01T03:13:36.261Z,11.74
2019-06-01T03:14:06.568Z,11.77
2019-06-01T03:14:36.255Z,11.74
2019-06-01T03:15:06.525Z,11.74
2019-06-01T03:15:38.159Z,11.74
2019-06-01T03:16:06.591Z,11.70
2019-06-01T03:16:39.917Z,11.71
2019-06-01T03:17:06.210Z,11.71
2019-06-01T03:17:37.268Z,11.71
2019-06-01T03:18:07.702Z,11.70
2019-06-01T03:18:36.539Z,11.71
2019-06-01T03:19:06.238Z,11.68
2019-06-01T03:19:36.319Z,11.70
2019-06-01T03:20:06.362Z,11.66
2019-06-01T03:20:36.267Z,11.68
2019-06-01T03:21:06.380Z,11.67
2019-06-01T03:21:36.267Z,11.67
2019-06-01T03:22:07.198Z,11.66
2019-06-01T03:22:36.269Z,11.67
2019-06-01T03:23:06.201Z,11.67
2019-06-01T03:23:36.298Z,11.66
2019-06-01T03:24:06.209Z,11.67
2019-06-01T03:24:36.256Z,11.68
2019-06-01T03:25:06.202Z,11.68
2019-06-01T03:25:36.266Z,11.70
2019-06-01T03:26:08.665Z,11.70
2019-06-01T03:26:36.288Z,11.71
2019-06-01T03:27:06.407Z,11.71
2019-06-01T03:27:36.294Z,11.73
2019-06-01T03:28:08.164Z,11.71
2019-06-01T03:28:36.330Z,11.74
2019-06-01T03:29:07.209Z,11.73
2019-06-01T03:29:36.271Z,11.71
2019-06-01T03:30:08.857Z,11.71
2019-06-01T03:30:36.360Z,11.71
2019-06-01T03:31:08.268Z,11.70
2019-06-01T03:31:36.269Z,11.68
2019-06-01T03:32:23.632Z,11.67
2019-06-01T03:32:37.449Z,11.68
2019-06-01T03:33:08.498Z,11.67
2019-06-01T03:33:36.268Z,11.68
2019-06-01T03:34:06.960Z,11.64
2019-06-01T03:34:36.265Z,11.63
2019-06-01T03:35:06.716Z,11.64
2019-06-01T03:35:36.268Z,11.61
2019-06-01T03:36:06.866Z,11.64
2019-06-01T03:36:38.252Z,11.60
2019-06-01T03:37:07.018Z,11.58
2019-06-01T03:37:36.268Z,11.60
2019-06-01T03:38:06.936Z,11.58
2019-06-01T03:38:37.623Z,11.60
2019-06-01T03:39:06.197Z,11.58
2019-06-01T03:39:36.278Z,11.61
2019-06-01T03:40:13.729Z,11.60
2019-06-01T03:40:36.267Z,11.63
2019-06-01T03:41:06.204Z,11.66
2019-06-01T03:41:36.261Z,11.68
2019-06-01T03:42:07.607Z,11.71
2019-06-01T03:42:36.279Z,11.78
2019-06-01T03:43:07.204Z,11.80
2019-06-01T03:43:36.268Z,11.88
2019-06-01T03:44:06.492Z,11.94
2019-06-01T03:44:36.295Z,12.02
2019-06-01T03:45:07.530Z,12.08
2019-06-01T03:45:36.267Z,12.15
2019-06-01T03:46:06.635Z,12.19
2019-06-01T03:46:36.351Z,12.26
2019-06-01T03:47:08.249Z,12.31
2019-06-01T03:47:36.264Z,12.36
2019-06-01T03:48:06.681Z,12.43
2019-06-01T03:48:36.291Z,12.45
2019-06-01T03:49:07.657Z,12.48
2019-06-01T03:49:36.266Z,12.52
2019-06-01T03:50:06.845Z,12.57
2019-06-01T03:50:36.275Z,12.59
2019-06-01T03:51:06.209Z,12.67
2019-06-01T03:51:36.277Z,12.74
2019-06-01T03:52:06.854Z,12.80
2019-06-01T03:52:36.292Z,12.87
2019-06-01T03:53:06.217Z,12.95
2019-06-01T03:53:36.264Z,13.01
2019-06-01T03:54:06.807Z,13.11
2019-06-01T03:54:36.267Z,13.15
2019-06-01T03:55:06.214Z,13.18
2019-06-01T03:55:36.275Z,13.24
2019-06-01T03:56:06.927Z,13.26
2019-06-01T03:56:36.271Z,13.31
2019-06-01T03:57:07.213Z,13.35
2019-06-01T03:57:38.223Z,13.39
2019-06-01T03:58:07.221Z,13.43
2019-06-01T03:58:36.275Z,13.49
2019-06-01T03:59:07.202Z,13.55
2019-06-01T03:59:37.262Z,13.60
2019-06-01T04:00:07.132Z,13.64
2019-06-01T04:00:36.271Z,13.69
2019-06-01T04:01:07.096Z,13.73
2019-06-01T04:01:36.279Z,13.77
2019-06-01T04:02:07.040Z,13.82
2019-06-01T04:02:36.273Z,13.86
2019-06-01T04:03:07.102Z,13.87
2019-06-01T04:03:36.281Z,13.94
2019-06-01T04:04:07.092Z,13.98
2019-06-01T04:04:36.279Z,14.05
2019-06-01T04:05:07.311Z,14.10
2019-06-01T04:05:36.274Z,14.15
2019-06-01T04:06:07.159Z,14.22
2019-06-01T04:06:36.280Z,14.29
2019-06-01T04:07:06.373Z,14.36
2019-06-01T04:07:38.849Z,14.45
2019-06-01T04:08:08.097Z,14.49
2019-06-01T04:08:36.277Z,14.55
2019-06-01T04:09:07.353Z,14.58
2019-06-01T04:09:36.383Z,14.62
2019-06-01T04:10:07.922Z,14.66
2019-06-01T04:10:36.282Z,14.69
2019-06-01T04:11:06.526Z,14.75
2019-06-01T04:11:36.292Z,14.79
2019-06-01T04:12:06.219Z,14.84
2019-06-01T04:12:36.284Z,14.93
2019-06-01T04:13:06.217Z,15.04
2019-06-01T04:13:36.358Z,15.11
2019-06-01T04:14:06.211Z,15.20
2019-06-01T04:14:36.276Z,15.27
2019-06-01T04:15:10.041Z,15.34
2019-06-01T04:15:36.291Z,15.41
2019-06-01T04:16:06.214Z,15.46
2019-06-01T04:16:36.290Z,15.51
2019-06-01T04:17:06.250Z,15.56
2019-06-01T04:17:36.287Z,15.61
2019-06-01T04:18:06.210Z,15.66
2019-06-01T04:18:38.202Z,15.72
2019-06-01T04:19:06.257Z,15.74
2019-06-01T04:19:36.276Z,15.82
2019-06-01T04:20:06.245Z,15.89
2019-06-01T04:20:37.196Z,15.93
2019-06-01T04:21:06.211Z,15.97
2019-06-01T04:21:36.274Z,16.01
2019-06-01T04:22:06.221Z,16.09
2019-06-01T04:22:36.277Z,16.13
2019-06-01T04:23:06.245Z,16.20
2019-06-01T04:23:36.565Z,16.23
2019-06-01T04:24:06.213Z,16.27
2019-06-01T04:24:36.274Z,16.30
2019-06-01T04:25:06.221Z,16.41
2019-06-01T04:25:36.288Z,16.47
2019-06-01T04:26:06.284Z,16.54
2019-06-01T04:26:36.272Z,16.61
2019-06-01T04:27:06.225Z,16.71
2019-06-01T04:27:36.285Z,16.76
2019-06-01T04:28:06.323Z,16.83
2019-06-01T04:28:36.281Z,16.89
2019-06-01T04:29:08.364Z,16.95
2019-06-01T04:29:36.286Z,16.99
2019-06-01T04:30:06.737Z,16.99
2019-06-01T04:30:36.274Z,17.04
2019-06-01T04:31:08.472Z,17.06
2019-06-01T04:31:36.290Z,17.09
2019-06-01T04:32:06.492Z,17.15
2019-06-01T04:32:48.754Z,17.20
2019-06-01T04:33:06.946Z,17.27
2019-06-01T04:33:36.302Z,17.35
2019-06-01T04:34:06.746Z,17.38
2019-06-01T04:34:36.276Z,17.42
2019-06-01T04:35:07.275Z,17.42
2019-06-01T04:35:36.298Z,17.48
2019-06-01T04:36:06.865Z,17.51
2019-06-01T04:36:36.281Z,17.58
2019-06-01T04:37:07.032Z,17.62
2019-06-01T04:37:36.292Z,17.72
2019-06-01T04:38:07.135Z,17.80
2019-06-01T04:38:36.378Z,17.92
2019-06-01T04:39:07.281Z,17.99
2019-06-01T04:39:38.247Z,18.10
2019-06-01T04:40:07.338Z,18.19
2019-06-01T04:40:36.295Z,18.24
2019-06-01T04:41:07.379Z,18.30
2019-06-01T04:41:37.274Z,18.31
2019-06-01T04:42:06.217Z,18.34
2019-06-01T04:42:36.287Z,18.37
2019-06-01T04:43:06.219Z,18.37
2019-06-01T04:43:36.277Z,18.40
2019-06-01T04:44:06.219Z,18.43
2019-06-01T04:44:36.286Z,18.45
2019-06-01T04:45:06.776Z,18.51
2019-06-01T04:45:36.278Z,18.57
2019-06-01T04:46:06.233Z,18.54
2019-06-01T04:46:36.283Z,18.52
2019-06-01T04:47:06.612Z,18.54
2019-06-01T04:47:36.280Z,18.51
2019-06-01T04:48:06.363Z,18.48
2019-06-01T04:48:36.286Z,18.48
2019-06-01T04:49:06.500Z,18.50
2019-06-01T04:49:36.292Z,18.55
2019-06-01T04:50:08.666Z,18.60
2019-06-01T04:50:36.296Z,18.60
2019-06-01T04:51:06.629Z,18.58
2019-06-01T04:51:36.286Z,18.60
2019-06-01T04:52:07.202Z,18.58
2019-06-01T04:52:36.294Z,18.60
2019-06-01T04:53:06.782Z,18.58
2019-06-01T04:53:36.326Z,18.60
2019-06-01T04:54:06.794Z,18.58
2019-06-01T04:54:36.302Z,18.54
2019-06-01T04:55:07.215Z,18.44
2019-06-01T04:55:36.288Z,18.31
2019-06-01T04:56:06.952Z,18.13
2019-06-01T04:56:36.296Z,18.05
2019-06-01T04:57:06.729Z,18.02
2019-06-01T04:57:36.284Z,17.98
2019-06-01T04:58:06.730Z,17.93
2019-06-01T04:58:36.294Z,17.90
2019-06-01T04:59:06.781Z,17.85
2019-06-01T04:59:37.848Z,17.76
2019-06-01T05:00:11.866Z,17.66
2019-06-01T05:00:38.192Z,17.60
2019-06-01T05:01:06.851Z,17.47
2019-06-01T05:01:36.342Z,17.44
2019-06-01T05:02:07.325Z,17.41
2019-06-01T05:02:37.227Z,17.40
2019-06-01T05:03:08.501Z,17.34
2019-06-01T05:03:36.347Z,17.29
2019-06-01T05:04:07.045Z,17.21
2019-06-01T05:04:36.292Z,17.18
2019-06-01T05:05:07.115Z,17.21
2019-06-01T05:05:36.339Z,17.26
2019-06-01T05:06:07.357Z,17.30
2019-06-01T05:06:36.293Z,17.30
2019-06-01T05:07:07.191Z,17.24
2019-06-01T05:07:36.324Z,17.23
2019-06-01T05:08:07.137Z,17.20
2019-06-01T05:08:36.295Z,17.20
2019-06-01T05:09:07.223Z,17.17
2019-06-01T05:09:36.291Z,17.11
2019-06-01T05:10:07.374Z,17.09
2019-06-01T05:10:36.293Z,17.04
2019-06-01T05:11:08.913Z,17.07
2019-06-01T05:11:36.316Z,17.04
2019-06-01T05:12:07.447Z,17.03
2019-06-01T05:12:36.288Z,16.97
2019-06-01T05:13:07.312Z,16.95
2019-06-01T05:13:36.287Z,16.89
2019-06-01T05:14:07.224Z,16.86
2019-06-01T05:14:36.292Z,16.87
2019-06-01T05:15:07.295Z,16.87
2019-06-01T05:15:36.301Z,16.90
2019-06-01T05:16:06.231Z,16.87
2019-06-01T05:16:36.309Z,16.79
2019-06-01T05:17:06.233Z,16.74
2019-06-01T05:17:36.292Z,16.69
2019-06-01T05:18:06.234Z,16.66
2019-06-01T05:18:36.296Z,16.68
2019-06-01T05:19:06.230Z,16.64
2019-06-01T05:19:36.296Z,16.64
2019-06-01T05:20:06.348Z,16.64
2019-06-01T05:20:36.295Z,16.59
2019-06-01T05:21:06.395Z,16.58
2019-06-01T05:21:38.214Z,16.54
2019-06-01T05:22:06.404Z,16.54
2019-06-01T05:22:36.300Z,16.51
2019-06-01T05:23:06.558Z,16.49
2019-06-01T05:23:37.222Z,16.49
2019-06-01T05:24:06.598Z,16.48
2019-06-01T05:24:36.319Z,16.44
2019-06-01T05:25:06.758Z,16.44
2019-06-01T05:25:36.328Z,16.42
2019-06-01T05:26:06.726Z,16.44
2019-06-01T05:26:36.442Z,16.44
2019-06-01T05:27:06.816Z,16.47
2019-06-01T05:27:36.296Z,16.52
2019-06-01T05:28:06.979Z,16.52
2019-06-01T05:28:36.363Z,16.52
2019-06-01T05:29:07.395Z,16.52
2019-06-01T05:29:36.290Z,16.51
2019-06-01T05:30:07.293Z,16.51
2019-06-01T05:30:36.354Z,16.57
2019-06-01T05:31:08.284Z,16.55
2019-06-01T05:31:36.298Z,16.58
2019-06-01T05:32:08.399Z,16.59
2019-06-01T05:32:36.348Z,16.55
2019-06-01T05:33:21.296Z,16.48
2019-06-01T05:33:37.516Z,16.45
2019-06-01T05:34:07.679Z,16.44
2019-06-01T05:34:36.305Z,16.39
2019-06-01T05:35:06.242Z,16.35
2019-06-01T05:35:36.295Z,16.31
2019-06-01T05:36:06.233Z,16.30
2019-06-01T05:36:36.500Z,16.35
2019-06-01T05:37:06.233Z,16.30
2019-06-01T05:37:36.303Z,16.25
2019-06-01T05:38:06.239Z,16.21
2019-06-01T05:38:36.306Z,16.16
2019-06-01T05:39:06.236Z,16.11
2019-06-01T05:39:36.331Z,16.04
2019-06-01T05:40:06.238Z,15.93
2019-06-01T05:40:36.312Z,15.84
2019-06-01T05:41:06.238Z,15.76
2019-06-01T05:41:36.300Z,15.70
2019-06-01T05:42:06.241Z,15.62
2019-06-01T05:42:38.178Z,15.58
2019-06-01T05:43:06.252Z,15.56
2019-06-01T05:43:36.298Z,15.52
2019-06-01T05:44:06.263Z,15.52
2019-06-01T05:44:37.251Z,15.49
2019-06-01T05:45:06.300Z,15.49
2019-06-01T05:45:36.305Z,15.44
2019-06-01T05:46:06.245Z,15.38
2019-06-01T05:46:36.306Z,15.31
2019-06-01T05:47:06.312Z,15.28
2019-06-01T05:47:36.299Z,15.27
2019-06-01T05:48:06.270Z,15.27
2019-06-01T05:48:36.314Z,15.27
2019-06-01T05:49:06.297Z,15.31
2019-06-01T05:49:36.315Z,15.35
2019-06-01T05:50:06.245Z,15.44
2019-06-01T05:50:36.307Z,15.53
2019-06-01T05:51:06.247Z,15.61
2019-06-01T05:51:36.308Z,15.74
2019-06-01T05:52:06.252Z,15.88
2019-06-01T05:52:36.306Z,15.97
2019-06-01T05:53:08.268Z,16.09
2019-06-01T05:53:36.395Z,16.20
2019-06-01T05:54:06.250Z,16.28
2019-06-01T05:54:36.304Z,16.30
2019-06-01T05:55:07.312Z,16.32
2019-06-01T05:55:36.337Z,16.41
2019-06-01T05:56:06.263Z,16.48
2019-06-01T05:56:36.312Z,16.54
2019-06-01T05:57:06.242Z,16.61
2019-06-01T05:57:36.446Z,16.68
2019-06-01T05:58:06.279Z,16.74
2019-06-01T05:58:36.312Z,16.78
2019-06-01T05:59:06.255Z,16.83
2019-06-01T05:59:36.313Z,16.86
2019-06-01T06:00:06.262Z,16.95
2019-06-01T06:00:36.310Z,16.99
2019-06-01T06:01:06.255Z,17.04
2019-06-01T06:01:36.303Z,17.11
2019-06-01T06:02:06.262Z,17.13
2019-06-01T06:02:36.307Z,17.14
2019-06-01T06:03:06.246Z,17.18
2019-06-01T06:03:40.515Z,17.20
2019-06-01T06:04:06.258Z,17.23
2019-06-01T06:04:36.304Z,17.23
2019-06-01T06:05:06.235Z,17.24
2019-06-01T06:05:37.266Z,17.29
2019-06-01T06:06:06.245Z,17.30
2019-06-01T06:06:36.300Z,17.30
2019-06-01T06:07:06.244Z,17.27
2019-06-01T06:07:36.321Z,17.26
2019-06-01T06:08:06.248Z,17.23
2019-06-01T06:08:36.352Z,17.18
2019-06-01T06:09:06.253Z,17.17
2019-06-01T06:09:36.323Z,17.21
2019-06-01T06:10:06.256Z,17.24
2019-06-01T06:10:36.307Z,17.30
2019-06-01T06:11:06.247Z,17.34
2019-06-01T06:11:36.316Z,17.38
2019-06-01T06:12:06.303Z,17.42
2019-06-01T06:12:36.314Z,17.47
2019-06-01T06:13:06.246Z,17.52
2019-06-01T06:13:36.318Z,17.58
2019-06-01T06:14:08.267Z,17.57
2019-06-01T06:14:36.314Z,17.61
2019-06-01T06:15:06.253Z,17.62
2019-06-01T06:15:36.305Z,17.66
2019-06-01T06:16:07.060Z,17.68
2019-06-01T06:16:36.570Z,17.68
2019-06-01T06:17:06.257Z,17.68
2019-06-01T06:17:36.317Z,17.66
2019-06-01T06:18:06.255Z,17.69
2019-06-01T06:18:36.427Z,17.69
2019-06-01T06:19:06.253Z,17.68
2019-06-01T06:19:36.312Z,17.69
2019-06-01T06:20:06.250Z,17.71
2019-06-01T06:20:36.373Z,17.72
2019-06-01T06:21:06.250Z,17.71
2019-06-01T06:21:36.310Z,17.71
2019-06-01T06:22:06.253Z,17.72
2019-06-01T06:22:36.369Z,17.75
2019-06-01T06:23:06.260Z,17.76
2019-06-01T06:23:36.331Z,17.83
2019-06-01T06:24:06.249Z,17.93
2019-06-01T06:24:38.123Z,17.98
2019-06-01T06:25:06.265Z,18.05
2019-06-01T06:25:38.366Z,18.05
2019-06-01T06:26:06.257Z,18.02